CAN weather

Guangzhou Baiyun International Airport
Guangzhou, Guangdong Province, China

Public forecast

Using degrees Celsius for public forecast. Weather courtesy of forecast.io.

METAR (pilot weather report)

Retrieved 2019/03/23 22:30 UTC (28 minutes ago):

ZGGG 232230Z 06002MPS 020V090 9999 -RA FEW010 OVC033 12/10 Q1020 BECMG AT2330 SHRA

TAF (pilot weather forecast)

Forecast is more than 12 hours old.

Retrieved 2019/03/21 18:10 UTC (2 days ago):

TAF ZGGG 211508Z 2118/2218 15004MPS 8000 BKN040 TX27/2207Z TN22/2122Z BECMG 2209/2210 36005MPS TEMPO 2206/2212 3500 TSRA SCT011 SCT030CB BKN033